Latest Weather Observations for Albany Airport

IDW60801

Issued at 5:04 am WST Friday 18 August 2017 (issued every 30 minutes, with the page automatically refreshed every 10 minutes)

About weather observations | Map of weather stations | Latest weather observations for WA | Other Formats
Station Details ID: 009999 Name: ALBANY AIRPORT Lat: -34.94 Lon: 117.82 Height: 68.4 m
Data from the previous 72 hours. | See also: Recent months at Albany Airport
Date/Time
WST
Temp
°C
App
Temp
°C
Dew
Point
°C
Rel
Hum
%
Delta-T
°C
Wind Press
QNH
hPa
Press
MSL
hPa
Rain since
9am
mm
Dir  Spd
km/h
Gust
km/h
Spd
kts
Gust
kts
18/05:00am 10.9 6.2 6.0 72 2.3 N 20 28 11 15 1015.9 - 0.2
18/04:30am 10.6 5.9 6.1 74 2.1 N 20 32 11 17 1015.9 - 0.2
18/04:00am 10.8 6.3 6.1 73 2.2 N 19 28 10 15 1015.8 - 0.2
18/03:30am 11.5 6.5 6.4 71 2.4 N 22 33 12 18 1015.9 - 0.2
18/03:00am 11.1 7.3 7.4 78 1.8 N 17 26 9 14 1016.0 1016.2 0.2
18/02:30am 11.1 7.0 7.8 80 1.6 N 19 24 10 13 1015.9 - 0.2
18/02:00am 11.3 6.6 7.6 78 1.8 N 22 32 12 17 1016.1 - 0.2
18/01:30am 10.2 6.7 7.3 82 1.4 N 15 20 8 11 1016.0 - 0.2
18/01:00am 10.6 6.7 7.0 78 1.7 N 17 20 9 11 1016.0 - 0.2
18/12:30am 10.4 6.5 7.0 79 1.6 N 17 20 9 11 1016.0 - 0.2
18/12:00am 10.5 6.3 7.6 82 1.4 N 19 22 10 12 1016.2 1016.4 0.2
 
Date/Time
WST
Temp
°C
App
Temp
°C
Dew
Point
°C
Rel
Hum
%
Delta-T
°C
Wind Press
QNH
hPa
Press
MSL
hPa
Rain since
9am
mm
Dir  Spd
km/h
Gust
km/h
Spd
kts
Gust
kts
17/11:30pm 10.6 6.5 7.9 83 1.3 N 19 26 10 14 1016.2 - 0.2
17/11:00pm 10.7 7.1 8.2 84 1.2 N 17 24 9 13 1016.2 - 0.2
17/10:30pm 11.0 7.8 8.6 85 1.2 N 15 20 8 11 1016.6 - 0.2
17/10:00pm 10.6 7.4 8.6 87 1.0 N 15 19 8 10 1016.8 - 0.2
17/09:30pm 10.4 7.1 8.1 86 1.1 N 15 22 8 12 1016.9 - 0.2
17/09:00pm 10.6 6.8 7.7 82 1.4 N 17 24 9 13 1017.0 1017.2 0.2
17/08:30pm 10.9 7.2 7.8 81 1.5 N 17 20 9 11 1016.8 - 0.2
17/08:00pm 9.8 7.4 8.8 93 0.5 N 11 13 6 7 1016.8 - 0.2
17/07:30pm 9.3 7.3 8.7 96 0.3 NNE 9 9 5 5 1016.8 - 0.2
17/07:00pm 9.5 7.6 9.1 97 0.2 N 9 9 5 5 1016.6 - 0.2
17/06:30pm 10.2 8.3 9.2 93 0.5 NW 9 9 5 5 1016.5 - 0.2
17/06:00pm 10.9 9.7 9.5 91 0.7 W 6 7 3 4 1016.5 1016.7 0.2
17/05:30pm 11.5 8.8 9.1 85 1.2 W 13 15 7 8 1016.3 - 0.2
17/05:00pm 12.9 8.6 6.9 67 2.9 NNW 19 28 10 15 1016.1 - 0.0
17/04:30pm 13.8 9.6 5.8 58 3.8 N 17 22 9 12 1015.7 - 0.0
17/04:00pm 15.3 10.6 5.2 51 4.8 NNW 19 26 10 14 1015.6 - 0.0
17/03:30pm 14.9 9.3 5.2 52 4.6 NNW 24 33 13 18 1015.7 - 0.0
17/03:00pm 14.8 10.4 4.8 51 4.7 NNW 17 24 9 13 1015.9 1016.1 0.0
17/02:30pm 14.5 9.2 5.2 53 4.4 NNW 22 30 12 16 1016.1 - 0.0
17/02:00pm 14.6 8.9 5.0 52 4.5 NNW 24 32 13 17 1016.1 - 0.0
17/01:30pm 15.6 11.4 5.8 52 4.7 NW 17 26 9 14 1016.2 - 0.0
17/01:00pm 15.0 10.2 5.8 54 4.4 NW 20 28 11 15 1016.5 - 0.0
17/12:30pm 14.8 10.7 6.3 56 4.1 NW 17 22 9 12 1017.0 - 0.0
17/12:00pm 13.3 8.1 5.7 60 3.6 NNW 22 32 12 17 1017.5 1017.7 0.0
17/11:30am 13.8 9.4 6.5 61 3.5 NW 19 28 10 15 1017.7 - 0.0
17/11:00am 12.7 7.3 6.4 65 3.0 NW 24 33 13 18 1018.0 - 0.0
17/10:30am 13.1 7.7 6.4 64 3.2 WNW 24 35 13 19 1018.0 - 0.0
17/10:00am 12.3 6.9 6.4 67 2.8 NW 24 30 13 16 1018.1 - 0.0
17/09:30am 11.5 6.6 6.9 73 2.2 WNW 22 28 12 15 1018.1 - 0.0
17/09:00am 9.9 5.8 6.0 77 1.8 NW 17 24 9 13 1018.1 1018.3 10.6
17/08:30am 8.6 4.7 5.5 81 1.4 WNW 15 19 8 10 1018.1 - 10.6
17/08:00am 7.5 4.7 5.0 84 1.1 W 9 17 5 9 1017.9 - 10.6
17/07:30am 6.4 2.0 4.6 88 0.8 NW 17 24 9 13 1017.4 - 10.6
17/07:00am 5.9 1.1 4.5 91 0.6 NW 19 22 10 12 1017.0 - 10.6
17/06:30am 5.4 1.0 4.5 94 0.4 NW 17 20 9 11 1016.6 - 10.4
17/06:00am 5.4 0.9 4.2 92 0.5 WNW 17 20 9 11 1016.5 1016.7 10.4
17/05:30am 6.0 1.0 4.4 89 0.7 WNW 20 24 11 13 1016.4 - 10.4
17/05:00am 6.0 1.0 4.6 91 0.6 NW 20 26 11 14 1016.1 - 10.4
17/04:30am 5.7 0.9 4.5 92 0.5 WNW 19 26 10 14 1016.0 - 10.4
17/04:00am 6.2 1.4 4.8 91 0.6 WNW 19 24 10 13 1016.1 - 10.4
17/03:30am 5.8 1.0 4.6 92 0.5 NW 19 20 10 11 1015.8 - 10.4
17/03:00am 6.3 2.3 4.9 91 0.6 W 15 20 8 11 1016.1 1016.3 10.4
17/02:30am 6.5 0.8 4.9 89 0.7 WNW 24 32 13 17 1016.1 - 10.4
17/02:00am 6.1 1.2 5.0 93 0.5 NW 20 26 11 14 1016.0 - 10.2
17/01:30am 6.2 1.5 5.1 93 0.5 NW 19 22 10 12 1016.0 - 10.2
17/01:24am 6.2 1.5 5.1 93 0.5 WNW 19 26 10 14 1016.1 - 10.2
17/01:11am 6.6 1.3 5.2 91 0.6 WNW 22 33 12 18 1016.2 - 10.2
17/01:00am 6.3 2.0 5.2 93 0.5 WNW 17 24 9 13 1016.4 - 10.2
17/12:38am 6.4 1.7 5.0 91 0.6 NW 19 24 10 13 1016.2 - 10.0
17/12:30am 6.6 3.1 5.5 93 0.5 WNW 13 17 7 9 1016.4 - 10.0
17/12:22am 6.8 3.0 5.9 94 0.4 W 15 19 8 10 1016.5 - 10.0
17/12:20am 6.8 2.6 5.9 94 0.4 W 17 19 9 10 1016.6 - 9.8
17/12:01am 6.7 2.1 5.8 94 0.4 WNW 19 26 10 14 1016.2 - 9.0
17/12:00am 6.7 2.1 5.6 93 0.5 WNW 19 26 10 14 1016.3 1016.5 9.0
 
Date/Time
WST
Temp
°C
App
Temp
°C
Dew
Point
°C
Rel
Hum
%
Delta-T
°C
Wind Press
QNH
hPa
Press
MSL
hPa
Rain since
9am
mm
Dir  Spd
km/h
Gust
km/h
Spd
kts
Gust
kts
16/11:44pm 6.7 2.5 5.6 93 0.5 W 17 24 9 13 1016.4 - 8.6
16/11:30pm 6.8 2.8 5.0 88 0.8 W 15 20 8 11 1016.2 - 8.2
16/11:20pm 6.8 1.9 5.2 89 0.7 WNW 20 30 11 16 1016.3 - 8.0
16/11:03pm 6.9 2.3 5.6 91 0.6 WNW 19 24 10 13 1016.2 - 8.0
16/11:00pm 6.9 2.7 5.6 91 0.6 WNW 17 22 9 12 1016.4 - 7.6
16/10:30pm 6.6 2.7 5.5 93 0.5 WNW 15 20 8 11 1016.1 - 7.6
16/10:18pm 6.7 2.1 5.6 93 0.5 WNW 19 24 10 13 1016.3 - 7.6
16/10:00pm 7.0 0.3 5.4 89 0.7 W 30 43 16 23 1016.4 - 7.4
16/09:54pm 7.1 1.1 5.1 87 0.9 W 26 43 14 23 1016.5 - 7.0
16/09:30pm 7.3 1.8 3.8 78 1.5 WNW 22 32 12 17 1015.9 - 6.6
16/09:00pm 7.2 2.2 4.4 82 1.2 WNW 20 26 11 14 1015.9 1016.1 6.6
16/08:30pm 8.5 2.9 3.6 71 2.1 W 22 30 12 16 1016.0 - 6.6
16/08:00pm 8.5 3.1 2.6 66 2.5 W 20 30 11 16 1015.6 - 6.6
16/07:30pm 9.9 3.4 0.6 52 3.8 WSW 24 33 13 18 1015.2 - 6.6
16/07:00pm 9.3 3.5 4.6 72 2.1 W 24 33 13 18 1015.1 - 6.6
16/06:30pm 9.3 2.9 3.0 65 2.7 W 26 37 14 20 1014.5 - 6.4
16/06:11pm 9.2 2.4 3.2 66 2.6 WSW 28 52 15 28 1014.3 - 6.4
16/06:00pm 8.6 3.0 5.3 80 1.5 W 24 32 13 17 1014.3 1014.5 6.4
16/05:30pm 8.4 3.8 5.5 82 1.3 W 19 24 10 13 1013.6 - 6.4
16/05:21pm 8.8 0.6 4.8 76 1.8 W 37 56 20 30 1013.3 - 6.4
16/05:19pm 9.1 -0.4 4.1 71 2.2 W 43 56 23 30 1013.2 - 6.4
16/05:08pm 8.3 3.7 6.3 87 0.9 W 20 26 11 14 1013.7 - 6.4
16/05:00pm 8.3 3.8 6.3 87 0.9 W 19 26 10 14 1013.4 - 6.4
16/04:48pm 8.3 3.7 6.3 87 0.9 WSW 20 30 11 16 1013.8 - 5.8
16/04:30pm 8.4 1.3 5.5 82 1.3 W 32 43 17 23 1013.1 - 5.0
16/04:13pm 8.1 0.4 5.4 83 1.2 W 35 56 19 30 1013.4 - 5.0
16/04:00pm 8.2 0.1 5.1 81 1.4 WSW 37 63 20 34 1012.9 - 4.8
16/03:57pm 8.3 0.6 5.2 81 1.4 WSW 35 63 19 34 1013.3 - 4.8
16/03:56pm 8.4 1.1 5.5 82 1.3 WSW 33 59 18 32 1013.5 - 4.8
16/03:44pm 9.5 1.9 5.6 76 1.8 W 35 50 19 27 1012.6 - 4.2
16/03:30pm 8.6 0.1 5.0 78 1.6 W 39 61 21 33 1012.8 - 4.2
16/03:25pm 9.2 1.6 5.7 79 1.6 W 35 61 19 33 1013.0 - 4.0
16/03:16pm 10.3 3.2 5.3 71 2.3 W 32 54 17 29 1012.1 - 3.4
16/03:00pm 9.9 2.2 5.3 73 2.1 W 35 52 19 28 1012.1 1012.2 3.2
16/02:47pm 9.2 1.2 3.7 68 2.4 W 35 50 19 27 1012.2 - 3.2
16/02:30pm 8.6 -0.8 5.3 80 1.5 W 44 76 24 41 1012.3 - 3.0
16/02:29pm 8.8 -0.3 5.7 81 1.4 W 43 72 23 39 1012.4 - 3.0
16/02:28pm 9.1 0.3 5.6 79 1.6 W 41 54 22 29 1012.3 - 3.0
16/02:00pm 9.8 0.9 4.9 71 2.2 W 41 69 22 37 1011.8 - 2.8
16/01:59pm 9.7 0.8 5.1 73 2.1 W 41 69 22 37 1011.8 - 2.8
16/01:40pm 8.1 -1.3 5.4 83 1.2 W 44 83 24 45 1012.4 - 2.8
16/01:30pm 9.7 1.1 4.6 70 2.3 W 39 57 21 31 1011.8 - 2.6
16/01:07pm 9.2 0.5 4.2 71 2.2 W 39 57 21 31 1012.2 - 2.4
16/01:00pm 10.4 1.5 2.8 59 3.3 W 39 52 21 28 1011.8 - 2.2
16/12:50pm 9.1 -1.9 3.1 66 2.6 W 50 69 27 37 1011.9 - 2.2
16/12:44pm 9.9 -2.2 4.0 67 2.6 W 57 69 31 37 1011.8 - 2.2
16/12:30pm 12.3 4.7 3.9 56 3.8 W 33 54 18 29 1011.6 - 2.2
16/12:00pm 11.3 3.4 4.2 61 3.2 W 35 56 19 30 1012.4 1012.5 2.2
16/11:39am 11.0 2.4 4.9 66 2.8 W 39 83 21 45 1012.1 - 2.2
16/11:33am 10.9 3.4 4.7 65 2.8 W 33 52 18 28 1012.0 - 2.2
16/11:30am 10.9 3.7 5.0 67 2.7 W 32 43 17 23 1012.0 - 2.2
16/11:11am 8.6 1.2 5.0 78 1.6 W 33 63 18 34 1012.5 - 2.2
16/11:08am 8.7 2.4 5.6 81 1.4 W 28 61 15 33 1012.6 - 2.2
16/11:00am 8.0 0.7 5.3 83 1.2 WSW 33 44 18 24 1012.4 - 2.2
16/10:57am 8.0 1.0 5.8 86 1.0 W 32 44 17 24 1012.4 - 2.2
16/10:52am 8.3 -3.5 5.7 84 1.2 W 57 76 31 41 1012.5 - 2.2
16/10:51am 8.6 1.5 5.5 81 1.4 W 32 76 17 41 1012.4 - 2.0
16/10:50am 9.2 2.9 5.9 80 1.5 W 28 50 15 27 1012.7 - 2.0
16/10:42am 8.9 2.6 5.6 80 1.5 W 28 39 15 21 1011.9 - 2.0
16/10:30am 8.2 0.5 5.3 82 1.3 W 35 50 19 27 1012.0 - 1.8
16/10:19am 8.4 1.6 5.0 79 1.5 W 30 48 16 26 1012.0 - 1.6
16/10:18am 8.4 1.6 5.3 81 1.4 W 30 46 16 25 1012.0 - 1.6
16/10:07am 8.5 1.1 5.2 80 1.5 W 33 52 18 28 1012.1 - 1.2
16/10:00am 7.9 0.0 4.2 77 1.6 W 35 52 19 28 1012.0 - 1.2
16/09:49am 7.4 -0.5 4.4 81 1.3 W 35 41 19 22 1011.9 - 1.0
16/09:38am 8.0 -0.6 4.6 79 1.5 WSW 39 59 21 32 1012.0 - 0.6
16/09:31am 8.9 0.4 5.1 77 1.7 W 39 54 21 29 1011.9 - 0.2
16/09:30am 9.0 0.5 5.0 76 1.8 W 39 54 21 29 1011.8 - 0.2
16/09:27am 9.9 0.9 4.3 68 2.5 W 41 54 22 29 1011.7 - 0.2
16/09:10am 9.7 2.1 5.6 75 1.9 WNW 35 56 19 30 1011.3 - 0.0
16/09:00am 9.3 2.2 5.6 78 1.7 WNW 32 46 17 25 1011.2 1011.4 5.4
16/08:30am 8.2 1.8 5.1 81 1.4 W 28 33 15 18 1011.4 - 5.2
16/08:10am 8.6 1.9 5.7 82 1.3 WNW 30 56 16 30 1011.2 - 5.2
16/08:00am 8.8 2.8 5.3 79 1.6 WNW 26 35 14 19 1010.9 - 5.2
16/07:30am 8.3 1.8 4.7 78 1.6 WNW 28 41 15 22 1010.6 - 5.2
16/07:00am 7.8 1.1 3.9 76 1.7 WNW 28 41 15 22 1010.1 - 5.2
16/06:30am 7.5 2.2 5.0 84 1.1 WNW 22 30 12 16 1010.3 - 5.2
16/06:00am 7.9 1.5 5.0 82 1.3 WNW 28 37 15 20 1010.0 1010.2 5.2
16/05:30am 7.8 1.7 4.6 80 1.4 WNW 26 33 14 18 1010.0 - 5.2
16/05:00am 7.8 1.6 4.1 77 1.6 WNW 26 33 14 18 1009.8 - 5.2
16/04:30am 8.3 2.5 4.2 75 1.8 WNW 24 32 13 17 1009.8 - 5.2
16/04:00am 8.0 2.5 4.1 76 1.7 WNW 22 30 12 16 1009.8 - 5.2
16/03:30am 8.4 2.9 4.1 74 1.9 WNW 22 30 12 16 1009.6 - 5.2
16/03:00am 8.4 3.6 5.5 82 1.3 WNW 20 30 11 16 1009.8 1010.0 5.2
16/02:30am 8.3 3.9 6.6 89 0.8 WNW 19 26 10 14 1010.1 - 5.2
16/02:00am 8.5 4.1 7.2 91 0.6 WNW 20 28 11 15 1010.2 - 5.2
16/01:30am 8.7 4.3 7.4 91 0.6 WNW 20 28 11 15 1010.3 - 5.2
16/01:00am 8.7 4.4 7.7 93 0.5 WNW 20 26 11 14 1010.3 - 5.2
16/12:30am 8.6 4.3 7.8 95 0.4 WNW 20 28 11 15 1010.4 - 5.2
16/12:00am 9.3 4.3 8.1 92 0.6 WNW 24 35 13 19 1010.5 1010.7 5.0
 
Date/Time
WST
Temp
°C
App
Temp
°C
Dew
Point
°C
Rel
Hum
%
Delta-T
°C
Wind Press
QNH
hPa
Press
MSL
hPa
Rain since
9am
mm
Dir  Spd
km/h
Gust
km/h
Spd
kts
Gust
kts
15/11:30pm 9.2 2.6 7.7 90 0.7 WNW 32 39 17 21 1010.4 - 4.8
15/11:00pm 9.2 3.3 7.7 90 0.7 WNW 28 41 15 22 1010.7 - 4.8
15/10:36pm 9.5 2.9 7.6 88 0.9 WNW 32 52 17 28 1010.7 - 4.6
15/10:30pm 9.5 3.2 7.4 87 1.0 WNW 30 37 16 20 1010.6 - 4.4
15/10:00pm 9.3 3.5 6.3 81 1.4 NW 26 35 14 19 1010.5 - 4.0
15/09:30pm 9.5 3.4 6.5 81 1.4 WNW 28 35 15 19 1010.9 - 4.0
15/09:00pm 9.5 4.1 6.3 80 1.5 WNW 24 32 13 17 1011.3 1011.5 4.0
15/08:30pm 9.6 4.2 6.4 80 1.5 NW 24 32 13 17 1011.6 - 4.0
15/08:00pm 9.4 4.5 6.8 84 1.2 WNW 22 32 12 17 1011.7 - 4.0
15/07:30pm 9.7 5.2 6.9 83 1.3 WNW 20 33 11 18 1012.0 - 4.0
15/07:00pm 9.8 4.5 6.6 80 1.5 WNW 24 33 13 18 1011.8 - 4.0
15/06:30pm 10.1 5.5 6.5 78 1.7 WNW 20 32 11 17 1011.8 - 4.0
15/06:00pm 10.6 5.6 6.3 75 2.0 WNW 22 30 12 16 1011.4 1011.6 4.0
15/05:30pm 10.8 5.9 6.8 76 1.9 WNW 22 32 12 17 1011.0 - 4.0
15/05:00pm 11.9 5.1 6.9 71 2.4 WNW 32 43 17 23 1011.0 - 4.0
15/04:30pm 12.4 5.4 5.8 64 3.1 W 32 41 17 22 1010.7 - 4.0
15/04:00pm 12.9 5.8 5.7 61 3.4 W 32 48 17 26 1010.3 - 4.0
15/03:41pm 12.2 5.2 6.8 69 2.6 W 33 52 18 28 1010.4 - 4.0
15/03:30pm 12.8 5.6 7.5 70 2.6 WNW 35 50 19 27 1010.2 - 4.0
15/03:00pm 12.9 5.6 7.1 68 2.8 W 35 50 19 27 1009.9 1010.1 4.0
15/02:44pm 12.6 5.3 7.0 68 2.7 W 35 56 19 30 1009.8 - 4.0
15/02:30pm 12.4 5.8 7.9 74 2.2 W 32 48 17 26 1009.8 - 4.0
15/02:04pm 12.9 6.0 7.4 69 2.7 W 33 78 18 42 1009.4 - 4.0
15/02:00pm 13.9 7.6 8.8 71 2.6 W 32 46 17 25 1009.4 - 4.0
15/01:53pm 13.5 7.8 8.5 72 2.5 W 28 46 15 25 1009.2 - 4.0
15/01:47pm 13.0 7.9 9.3 78 1.9 W 26 37 14 20 1009.3 - 4.0
15/01:30pm 11.2 2.7 8.4 83 1.4 W 43 63 23 34 1009.2 - 4.0
15/01:28pm 11.4 3.7 8.6 83 1.4 W 39 63 21 34 1009.3 - 3.8
15/01:12pm 12.9 5.9 8.5 74 2.2 W 35 57 19 31 1009.0 - 3.8
15/01:00pm 11.6 5.5 9.6 87 1.0 W 32 54 17 29 1009.2 - 3.8
15/12:52pm 10.8 4.6 9.4 91 0.7 W 32 50 17 27 1009.2 - 3.6
15/12:48pm 11.2 5.3 9.0 86 1.1 W 30 41 16 22 1009.2 - 3.0
15/12:30pm 11.9 6.0 9.1 83 1.4 W 30 46 16 25 1009.3 - 2.6
15/12:00pm 12.0 5.5 8.8 81 1.6 W 33 50 18 27 1009.4 1009.6 2.4
15/11:44am 11.9 6.3 8.9 82 1.5 W 28 50 15 27 1009.4 - 2.4
15/11:30am 12.3 6.2 8.3 76 2.0 W 30 41 16 22 1009.3 - 2.4
15/11:00am 10.4 3.6 7.9 84 1.2 W 33 48 18 26 1009.2 - 2.4
15/10:59am 10.5 4.0 8.0 84 1.2 W 32 48 17 26 1009.2 - 2.4
15/10:50am 10.4 3.9 8.8 90 0.8 W 33 52 18 28 1009.1 - 2.4
15/10:47am 10.6 3.4 9.0 90 0.8 W 37 52 20 28 1009.1 - 2.4
15/10:40am 9.9 3.4 8.0 88 0.9 W 32 52 17 28 1008.9 - 2.0
15/10:39am 10.1 4.4 8.3 88 0.9 W 28 52 15 28 1009.1 - 2.0
15/10:30am 10.1 5.9 8.3 88 0.9 SW 20 28 11 15 1009.1 - 1.6
15/10:23am 10.6 6.5 8.6 87 1.0 SW 20 26 11 14 1009.1 - 1.6
15/10:10am 9.7 3.2 8.1 90 0.8 W 32 44 17 24 1008.4 - 1.4
15/10:02am 9.9 5.0 8.3 90 0.8 W 24 35 13 19 1008.6 - 1.0
15/10:00am 9.9 5.0 8.3 90 0.8 W 24 35 13 19 1008.5 - 1.0
15/09:51am 9.6 3.0 7.9 89 0.8 WNW 32 43 17 23 1008.6 - 1.0
15/09:34am 9.8 4.2 8.6 92 0.6 WNW 28 39 15 21 1008.1 - 0.6
15/09:30am 9.6 3.5 8.2 91 0.7 WNW 30 43 16 23 1008.1 - 0.6
15/09:16am 8.9 2.6 7.4 90 0.7 WNW 30 43 16 23 1007.8 - 0.4
15/09:01am 8.7 2.7 7.2 90 0.7 WNW 28 41 15 22 1007.8 - 0.0
15/09:00am 8.7 2.7 7.0 89 0.8 WNW 28 41 15 22 1007.8 1008.0 14.2
15/08:41am 8.8 2.5 7.3 90 0.7 WNW 30 39 16 21 1008.0 - 13.8
15/08:30am 8.3 2.3 7.0 91 0.6 WNW 28 35 15 19 1007.3 - 12.8
15/08:11am 7.8 2.1 6.7 93 0.5 WNW 26 35 14 19 1007.5 - 12.6
15/08:05am 8.1 2.8 6.8 91 0.6 WNW 24 33 13 18 1006.8 - 11.4
15/08:00am 8.1 2.4 6.8 91 0.6 WNW 26 33 14 18 1006.9 - 11.4
15/07:38am 8.0 0.6 6.7 91 0.6 WSW 35 59 19 32 1007.4 - 10.4
15/07:37am 8.0 1.0 6.9 93 0.5 WSW 33 41 18 22 1007.4 - 10.4
15/07:30am 8.0 1.2 6.7 91 0.6 WNW 32 44 17 24 1006.4 - 9.4
15/07:22am 7.9 1.0 6.4 90 0.7 WNW 32 44 17 24 1006.1 - 9.2
15/07:02am 7.9 0.4 6.2 89 0.8 WNW 35 54 19 29 1005.7 - 8.6
15/07:00am 7.9 -0.4 6.2 89 0.8 WNW 39 54 21 29 1005.8 - 8.6
15/06:50am 7.7 0.8 6.6 93 0.5 W 32 50 17 27 1006.1 - 8.2
15/06:30am 8.4 1.4 6.9 90 0.7 WNW 33 43 18 23 1005.1 - 5.4
15/06:12am 8.6 1.6 6.2 85 1.1 WNW 32 46 17 25 1004.3 - 4.2
15/06:00am 9.0 1.9 5.5 79 1.6 WNW 32 43 17 23 1004.2 1004.4 3.8
15/05:30am 8.8 2.2 6.0 82 1.3 WNW 30 41 16 22 1003.8 - 3.8

Other Formats:

Comma delimited format used in spreadsheet applications
http://www.bom.gov.au/fwo/IDW60801/IDW60801.94802.axf

JavaScript Object Notation format (JSON) in row-major order
http://www.bom.gov.au/fwo/IDW60801/IDW60801.94802.json